Forside
METAR-TAF:

METAR-TAF

Lufthavne :

Creston, Iowa, USA

Breddekreds: 41-01N, længdekreds: 094-22W, højde: 394 m

Aktuelle vejr

Denne rapport blev lavet for 23 minutter siden, kl. 15:55 UTC
Vind 6 kt fra østnordøst
Temperatur 9°C
Fugtighed 49%
Tryk 1030 hPa
Sigt: 16.1 km
skyfri

METAR: KCSQ 231555Z AUTO 06006KT 10SM CLR 09/M01 A3041 RMK AO2

Tid: 11:18 (16:18 UTC)


TAF: fraværende

Vejrobservationer og prognoser fra mere end 4000 lufthavne (METAR og TAF).

De gule og røde prikker repræsenterer de meteorologiske stationer.

Flyt musen over at se navnet på stationen.

Så klik over at se vejr observationer og prognoser.

At skifte det kort: Klik på de grønne knapper med et sort kors for at zoome ind; på den grønne knap med en bindestreg for at zoome ud; eller på de grønne pile for tilstødende kort.


METAR-TAF: